Time;durP1;ratioP1;P1;durP2;ratioP2;P2;SDS_P1;SDS_P2;PMS_P1;PMS_P2;Temp;Humidity;BMP_temperature;BMP_pressure;BME280_temperature;BME280_humidity;BME280_pressure;Samples;Min_cycle;Max_cycle;Signal;HPM_P1;HPM_P2
2022/09/11 00:01:15;;;;;;;7.65;4.43;;;;;;;13.23;100.00;100856.72;6044480;28;20387;-64
2022/09/11 00:04:10;;;;;;;8.27;4.70;;;;;;;13.15;100.00;100855.84;6045959;28;20117;-64
2022/09/11 00:07:06;;;;;;;7.47;4.60;;;;;;;13.19;100.00;100860.69;6046291;28;20747;-64
2022/09/11 00:10:01;;;;;;;9.90;5.20;;;;;;;13.20;100.00;100859.72;6045985;28;20041;-64
2022/09/11 00:12:57;;;;;;;8.90;5.47;;;;;;;13.18;100.00;100845.69;6041497;28;20132;-64
2022/09/11 00:15:52;;;;;;;11.10;6.22;;;;;;;13.25;100.00;100861.88;6033454;28;20030;-64
2022/09/11 00:18:52;;;;;;;12.87;7.00;;;;;;;13.27;100.00;100860.72;6034256;28;20045;-64
2022/09/11 00:21:49;;;;;;;12.27;7.05;;;;;;;13.24;100.00;100857.53;6033195;28;20117;-64
2022/09/11 00:24:44;;;;;;;13.00;7.55;;;;;;;13.24;100.00;100846.88;6032751;28;20485;-64
2022/09/11 00:27:39;;;;;;;11.47;7.07;;;;;;;13.45;100.00;100876.63;6035188;28;20054;-64
2022/09/11 00:30:35;;;;;;;10.93;6.57;;;;;;;13.44;100.00;100864.31;6038492;28;20065;-65
2022/09/11 00:33:31;;;;;;;11.20;6.33;;;;;;;13.38;100.00;100870.25;6050270;28;20034;-64
2022/09/11 00:36:30;;;;;;;12.70;6.30;;;;;;;13.37;100.00;100868.63;6049324;28;20030;-64
2022/09/11 00:39:25;;;;;;;10.27;6.53;;;;;;;13.43;100.00;100865.28;6048131;28;20034;-64
2022/09/11 00:42:20;;;;;;;11.83;6.90;;;;;;;13.35;100.00;100865.25;6049570;28;20049;-64
2022/09/11 00:45:21;;;;;;;14.70;8.70;;;;;;;13.37;100.00;100869.41;6050512;28;20089;-64
2022/09/11 00:48:19;;;;;;;13.20;6.82;;;;;;;13.30;100.00;100862.25;6042582;28;20026;-64
2022/09/11 00:51:24;;;;;;;13.00;7.45;;;;;;;13.37;100.00;100868.63;6046706;28;20029;-64
2022/09/11 00:54:25;;;;;;;14.60;7.35;;;;;;;13.31;100.00;100863.91;6049949;28;20564;-63
2022/09/11 00:57:23;;;;;;;11.55;7.28;;;;;;;13.24;100.00;100849.56;6048955;28;20034;-64
2022/09/11 01:00:19;;;;;;;15.35;7.00;;;;;;;13.19;100.00;100854.53;6048050;28;20737;-64
2022/09/11 01:03:14;;;;;;;13.07;6.70;;;;;;;13.25;100.00;100880.53;6049213;28;20033;-64
2022/09/11 01:06:09;;;;;;;17.13;7.60;;;;;;;13.20;100.00;100874.84;6036513;28;20034;-64
2022/09/11 01:09:05;;;;;;;13.00;7.68;;;;;;;13.09;100.00;100870.63;6047515;28;20048;-65
2022/09/11 01:12:06;;;;;;;12.20;6.83;;;;;;;13.08;100.00;100880.44;6048585;28;20038;-64
2022/09/11 01:15:21;;;;;;;13.90;7.45;;;;;;;13.01;100.00;100873.22;6049449;28;20034;-64
2022/09/11 01:18:29;;;;;;;13.65;7.38;;;;;;;13.08;100.00;100879.59;6064967;28;20044;-65
2022/09/11 01:21:44;;;;;;;14.48;7.05;;;;;;;13.00;100.00;100883.03;6063233;28;20040;-64
2022/09/11 01:24:50;;;;;;;15.98;7.50;;;;;;;12.90;100.00;100873.47;6052802;28;20072;-64
2022/09/11 01:27:49;;;;;;;;;;;;;;;12.86;100.00;100886.25;6049545;28;20109;-64
2022/09/11 01:30:46;;;;;;;13.30;7.72;;;;;;;12.84;100.00;100877.59;6063867;28;19917;-64
2022/09/11 01:33:48;;;;;;;15.30;7.63;;;;;;;13.03;100.00;100874.72;6048113;28;20112;-64
2022/09/11 01:36:52;;;;;;;17.33;7.97;;;;;;;13.09;100.00;100871.47;6048346;28;20045;-63
2022/09/11 01:39:57;;;;;;;13.38;7.53;;;;;;;12.81;100.00;100877.06;6047588;28;20061;-64
2022/09/11 01:42:58;;;;;;;14.43;7.63;;;;;;;12.80;100.00;100896.72;6059891;28;20034;-64
2022/09/11 01:45:56;;;;;;;13.68;7.28;;;;;;;12.75;100.00;100907.81;6053663;28;20030;-64
2022/09/11 01:49:05;;;;;;;11.82;7.53;;;;;;;12.71;100.00;100909.13;6046428;28;20349;-64
2022/09/11 01:52:05;;;;;;;15.77;7.85;;;;;;;12.79;100.00;100906.53;6047012;28;20055;-64
2022/09/11 01:55:04;;;;;;;14.65;7.93;;;;;;;12.74;100.00;100910.63;6063792;28;20026;-63
2022/09/11 01:58:07;;;;;;;16.25;8.10;;;;;;;12.65;100.00;100904.41;6048008;28;20026;-64
2022/09/11 02:01:10;;;;;;;15.38;8.45;;;;;;;12.69;100.00;100903.09;6046657;28;20117;-63
2022/09/11 02:04:09;;;;;;;16.80;8.60;;;;;;;12.75;100.00;100921.13;6063941;28;20065;-64
2022/09/11 02:07:18;;;;;;;15.85;8.13;;;;;;;12.70;100.00;100906.59;6063729;28;20041;-64
2022/09/11 02:10:21;;;;;;;15.85;8.68;;;;;;;12.61;100.00;100907.53;6046507;28;20447;-63
2022/09/11 02:13:28;;;;;;;15.63;9.13;;;;;;;12.72;100.00;100926.75;6046026;28;20034;-63
2022/09/11 02:16:34;;;;;;;15.73;8.95;;;;;;;12.79;100.00;100921.66;6048293;28;20045;-63
2022/09/11 02:19:30;;;;;;;16.20;7.88;;;;;;;12.92;100.00;100917.59;6047399;28;20041;-64
2022/09/11 02:22:25;;;;;;;16.05;8.68;;;;;;;12.94;100.00;100912.94;6047746;28;20033;-64
2022/09/11 02:25:20;;;;;;;18.70;9.25;;;;;;;13.03;100.00;100903.19;6046293;28;20092;-64
2022/09/11 02:28:16;;;;;;;20.60;9.70;;;;;;;13.13;100.00;100924.41;6045521;28;20632;-64
2022/09/11 02:31:11;;;;;;;19.07;9.53;;;;;;;13.20;100.00;100918.31;6038662;28;20374;-64
2022/09/11 02:34:08;;;;;;;23.60;10.70;;;;;;;13.28;100.00;100936.97;6047461;28;20540;-63
2022/09/11 02:37:22;;;;;;;30.48;11.98;;;;;;;13.37;100.00;100933.34;6046674;28;20324;-64
2022/09/11 02:40:26;;;;;;;74.13;12.85;;;;;;;13.30;100.00;100932.31;6043138;28;20077;-63
2022/09/11 02:43:39;;;;;;;92.57;13.82;;;;;;;13.16;100.00;100934.72;6062600;28;20078;-64
2022/09/11 02:47:04;;;;;;;50.55;12.40;;;;;;;13.18;100.00;100948.75;6056263;28;20104;-64
2022/09/11 02:50:24;;;;;;;44.53;11.73;;;;;;;13.22;100.00;100950.94;6033445;28;20041;-64
2022/09/11 02:53:23;;;;;;;50.40;10.73;;;;;;;13.13;100.00;100952.69;6062488;28;20034;-64
2022/09/11 02:56:30;;;;;;;42.20;11.38;;;;;;;13.13;100.00;100951.03;6047513;28;20507;-64
2022/09/11 02:59:39;;;;;;;30.88;12.38;;;;;;;13.14;100.00;100964.19;6061361;28;20084;-64
2022/09/11 03:02:38;;;;;;;28.88;11.13;;;;;;;13.12;100.00;100950.19;6044784;28;20091;-64
2022/09/11 03:05:36;;;;;;;37.40;11.90;;;;;;;12.97;100.00;100952.56;6045073;28;20045;-64
2022/09/11 03:08:31;;;;;;;30.08;11.48;;;;;;;13.09;100.00;100951.34;6047211;28;20136;-64
2022/09/11 03:11:26;;;;;;;26.80;10.03;;;;;;;13.36;100.00;100974.31;6046836;28;20598;-64
2022/09/11 03:14:23;;;;;;;34.92;11.55;;;;;;;13.34;100.00;100967.47;6045878;28;20275;-64
2022/09/11 03:17:18;;;;;;;16.10;8.45;;;;;;;13.30;100.00;100984.75;6047108;28;20048;-64
2022/09/11 03:20:14;;;;;;;15.27;8.73;;;;;;;13.02;100.00;100984.88;6045398;28;20107;-64
2022/09/11 03:23:09;;;;;;;15.77;8.60;;;;;;;12.95;100.00;100991.81;6046947;28;20034;-63
2022/09/11 03:26:05;;;;;;;17.10;8.33;;;;;;;12.82;100.00;100988.72;6033546;28;20041;-64
2022/09/11 03:29:00;;;;;;;35.37;11.63;;;;;;;12.65;100.00;100978.91;6046580;28;20585;-63
2022/09/11 03:31:57;;;;;;;30.98;9.73;;;;;;;12.67;100.00;100976.94;6035549;28;20313;-64
2022/09/11 03:34:52;;;;;;;31.13;9.40;;;;;;;12.68;100.00;100986.59;6039326;28;20027;-64
2022/09/11 03:37:49;;;;;;;25.50;8.83;;;;;;;12.76;100.00;100989.31;6027537;28;20030;-64
2022/09/11 03:40:45;;;;;;;26.17;7.82;;;;;;;12.78;100.00;100983.84;6045721;28;20046;-64
2022/09/11 03:43:40;;;;;;;20.37;8.23;;;;;;;12.72;100.00;100990.59;6046604;28;20036;-64
2022/09/11 03:46:37;;;;;;;14.67;7.83;;;;;;;12.73;100.00;100986.13;6044736;28;20123;-64
2022/09/11 03:49:32;;;;;;;18.30;7.18;;;;;;;12.76;100.00;100965.38;6046039;28;20061;-63
2022/09/11 03:52:29;;;;;;;23.52;7.60;;;;;;;12.85;100.00;100990.22;6045000;28;20454;-64
2022/09/11 03:55:24;;;;;;;30.75;7.10;;;;;;;12.81;100.00;100994.19;6037387;28;20042;-64
2022/09/11 03:58:19;;;;;;;20.20;8.30;;;;;;;12.73;100.00;100981.63;6046627;28;20084;-64
2022/09/11 04:01:17;;;;;;;19.55;7.25;;;;;;;12.84;100.00;100993.88;6043913;28;20034;-63
2022/09/11 04:04:14;;;;;;;22.38;7.45;;;;;;;12.97;100.00;101003.13;6045937;28;20037;-64
2022/09/11 04:07:09;;;;;;;20.05;7.25;;;;;;;12.87;100.00;100994.41;6045371;28;20092;-63
2022/09/11 04:10:05;;;;;;;58.00;9.23;;;;;;;12.87;100.00;100988.25;6038545;28;20045;-64
2022/09/11 04:13:00;;;;;;;20.92;8.63;;;;;;;12.93;100.00;100992.97;6046156;28;20260;-64
2022/09/11 04:16:16;;;;;;;31.10;7.83;;;;;;;13.07;100.00;101001.25;6045384;28;20037;-65
2022/09/11 04:19:12;;;;;;;21.73;7.72;;;;;;;13.03;100.00;100997.19;6046214;28;20036;-63
2022/09/11 04:22:07;;;;;;;36.75;9.05;;;;;;;13.04;100.00;100998.84;6045583;28;20437;-63
2022/09/11 04:25:03;;;;;;;34.05;10.35;;;;;;;13.01;100.00;100999.19;6041202;28;20038;-64
2022/09/11 04:27:58;;;;;;;22.00;9.15;;;;;;;13.01;100.00;100999.19;6042318;28;20083;-64
2022/09/11 04:30:55;;;;;;;36.23;10.23;;;;;;;13.06;100.00;101014.69;6045092;28;20042;-64
2022/09/11 04:33:52;;;;;;;28.98;11.10;;;;;;;13.04;100.00;101001.50;6045062;28;20033;-63
2022/09/11 04:36:47;;;;;;;27.35;10.13;;;;;;;13.01;100.00;101001.84;6032318;28;20029;-64
2022/09/11 04:39:43;;;;;;;37.10;10.33;;;;;;;13.12;100.00;101019.44;6042381;28;20439;-63
2022/09/11 04:42:38;;;;;;;21.58;9.50;;;;;;;13.07;100.00;101006.56;6045211;28;20477;-64
2022/09/11 04:45:35;;;;;;;32.67;11.63;;;;;;;13.15;100.00;101020.94;6044826;28;20038;-64
2022/09/11 04:48:30;;;;;;;24.00;9.68;;;;;;;13.15;100.00;101028.94;6037682;28;20469;-64
2022/09/11 04:51:29;;;;;;;21.77;9.23;;;;;;;13.17;100.00;101022.47;6043956;28;20043;-64
2022/09/11 04:54:24;;;;;;;24.25;10.45;;;;;;;13.15;100.00;101018.28;6043019;28;20596;-64
2022/09/11 04:57:19;;;;;;;29.50;10.83;;;;;;;13.22;100.00;101035.31;6045522;28;20034;-64
2022/09/11 05:00:15;;;;;;;27.13;11.05;;;;;;;13.25;100.00;101035.84;6044750;28;20088;-64
2022/09/11 05:03:10;;;;;;;32.67;10.10;;;;;;;13.23;100.00;101037.84;6045620;28;20045;-64
2022/09/11 05:06:06;;;;;;;26.33;10.87;;;;;;;13.18;100.00;101034.78;6044738;28;20387;-63
2022/09/11 05:09:04;;;;;;;31.15;10.57;;;;;;;13.13;100.00;101026.41;6036073;28;20536;-63
2022/09/11 05:12:01;;;;;;;29.95;11.45;;;;;;;13.32;100.00;101049.34;6041896;28;20026;-64
2022/09/11 05:14:56;;;;;;;31.30;11.77;;;;;;;13.20;100.00;101040.81;6041883;28;20030;-64
2022/09/11 05:17:52;;;;;;;35.85;12.35;;;;;;;13.22;100.00;101057.47;6049939;28;20033;-63
2022/09/11 05:20:47;;;;;;;37.27;13.30;;;;;;;13.22;100.00;101054.78;6044953;28;20042;-64
2022/09/11 05:23:48;;;;;;;36.72;12.93;;;;;;;13.20;100.00;101056.78;6042268;28;20354;-65
2022/09/11 05:26:43;;;;;;;;;;;;;;;13.28;100.00;101058.66;6048672;28;20044;-63
2022/09/11 05:29:38;;;;;;;35.53;12.17;;;;;;;13.24;100.00;101055.47;6045414;28;19917;-63
2022/09/11 05:32:34;;;;;;;33.50;11.55;;;;;;;13.54;100.00;101057.69;6049041;28;20030;-63
2022/09/11 05:35:30;;;;;;;38.33;11.63;;;;;;;13.44;100.00;101066.78;6049491;28;20087;-63
2022/09/11 05:38:25;;;;;;;34.40;11.50;;;;;;;13.36;100.00;101067.56;6048598;28;20030;-62
2022/09/11 05:41:20;;;;;;;31.83;11.43;;;;;;;13.39;100.00;101074.41;6047817;28;20378;-63
2022/09/11 05:44:16;;;;;;;33.00;10.33;;;;;;;13.45;100.00;101079.13;6046135;28;20284;-64
2022/09/11 05:47:13;;;;;;;32.05;11.32;;;;;;;13.34;100.00;101066.03;6027631;28;20041;-63
2022/09/11 05:50:08;;;;;;;33.17;11.27;;;;;;;13.49;100.00;101073.31;6026192;28;20038;-64
2022/09/11 05:53:04;;;;;;;37.58;12.60;;;;;;;13.36;100.00;101080.88;6047851;28;20033;-63
2022/09/11 05:56:13;;;;;;;36.33;11.88;;;;;;;13.37;100.00;101087.03;6041224;28;20442;-62
2022/09/11 05:59:14;;;;;;;34.58;11.05;;;;;;;13.39;100.00;101085.06;6035433;28;20562;-63
2022/09/11 06:02:10;;;;;;;38.70;12.75;;;;;;;13.49;100.00;101101.78;6048270;28;20029;-63
2022/09/11 06:05:06;;;;;;;33.00;11.88;;;;;;;13.46;100.00;101096.75;6048284;28;20041;-62
2022/09/11 06:08:01;;;;;;;30.35;11.88;;;;;;;13.61;100.00;101096.06;6048539;28;20096;-62
2022/09/11 06:10:57;;;;;;;36.23;12.47;;;;;;;13.79;100.00;101106.66;6039405;28;20030;-63
2022/09/11 06:13:52;;;;;;;37.33;12.60;;;;;;;13.78;100.00;101117.50;6042506;28;20029;-64
2022/09/11 06:16:48;;;;;;;32.30;11.68;;;;;;;13.71;100.00;101122.59;6041733;28;20375;-64
2022/09/11 06:19:43;;;;;;;36.23;12.57;;;;;;;13.65;100.00;101118.72;6037185;28;20089;-63
2022/09/11 06:22:38;;;;;;;43.70;12.53;;;;;;;13.60;100.00;101133.50;6035705;28;20030;-64
2022/09/11 06:25:34;;;;;;;40.87;13.60;;;;;;;13.54;100.00;101126.97;6046445;28;20834;-64
2022/09/11 06:28:29;;;;;;;39.58;13.50;;;;;;;13.63;100.00;101139.38;6048166;28;20280;-62
2022/09/11 06:31:25;;;;;;;35.37;11.53;;;;;;;13.64;100.00;101143.69;6046635;28;20056;-62
2022/09/11 06:34:21;;;;;;;30.77;11.52;;;;;;;13.78;100.00;101149.47;6043405;28;20025;-63
2022/09/11 06:37:16;;;;;;;33.77;12.27;;;;;;;13.76;100.00;101149.63;6039888;28;20041;-64
2022/09/11 06:40:12;;;;;;;37.10;12.77;;;;;;;13.74;100.00;101154.28;6046195;28;20034;-63
2022/09/11 06:43:07;;;;;;;36.03;13.27;;;;;;;13.66;100.00;101151.53;6047790;28;20062;-63
2022/09/11 06:46:03;;;;;;;40.13;13.10;;;;;;;13.64;100.00;101145.53;6045003;28;20527;-64
2022/09/11 06:48:59;;;;;;;38.13;15.02;;;;;;;13.81;100.00;101154.47;6045942;28;20029;-64
2022/09/11 06:51:54;;;;;;;45.72;15.90;;;;;;;13.69;100.00;101148.56;6047042;28;20034;-63
2022/09/11 06:54:49;;;;;;;37.77;14.63;;;;;;;13.81;100.00;101154.47;6047309;28;20477;-64
2022/09/11 06:57:44;;;;;;;37.73;14.90;;;;;;;13.94;100.00;101171.72;6047034;28;20269;-63
2022/09/11 07:00:40;;;;;;;38.33;14.83;;;;;;;13.80;100.00;101169.66;6046025;28;20045;-64
2022/09/11 07:03:36;;;;;;;41.27;15.03;;;;;;;13.84;100.00;101167.50;6046320;28;20061;-64
2022/09/11 07:06:31;;;;;;;39.20;14.95;;;;;;;13.84;100.00;101173.66;6038578;28;20273;-63
2022/09/11 07:09:27;;;;;;;41.40;15.73;;;;;;;13.77;100.00;101171.78;6047029;28;20053;-63
2022/09/11 07:12:22;;;;;;;39.20;14.83;;;;;;;13.73;100.00;101163.25;6046901;28;20353;-64
2022/09/11 07:15:18;;;;;;;43.28;16.17;;;;;;;13.77;100.00;101169.97;6041182;28;20058;-64
2022/09/11 07:18:13;;;;;;;40.17;16.67;;;;;;;13.84;100.00;101171.00;6047208;28;20397;-64
2022/09/11 07:21:11;;;;;;;37.83;16.17;;;;;;;13.85;100.00;101170.00;6036639;28;20062;-64
2022/09/11 07:24:08;;;;;;;41.83;16.75;;;;;;;14.16;100.00;101168.53;6046735;28;20026;-65
2022/09/11 07:27:03;;;;;;;39.65;15.80;;;;;;;14.02;100.00;101177.09;6046837;28;20037;-63
2022/09/11 07:29:58;;;;;;;36.67;16.70;;;;;;;14.08;100.00;101178.31;6046549;28;20037;-63
2022/09/11 07:32:54;;;;;;;41.30;16.00;;;;;;;13.98;100.00;101181.09;6046139;28;20065;-63
2022/09/11 07:35:51;;;;;;;40.40;14.77;;;;;;;14.06;100.00;101189.16;6045331;28;20537;-63
2022/09/11 07:38:48;;;;;;;39.25;15.98;;;;;;;14.28;100.00;101185.97;6045679;28;20327;-64
2022/09/11 07:41:45;;;;;;;36.60;15.70;;;;;;;14.35;100.00;101178.16;6043638;28;20529;-65
2022/09/11 07:44:40;;;;;;;34.92;14.82;;;;;;;14.32;100.00;101175.84;6039228;28;20026;-64
2022/09/11 07:47:37;;;;;;;35.67;14.30;;;;;;;14.42;100.00;101171.22;6022837;28;20041;-63
2022/09/11 07:50:32;;;;;;;33.25;14.25;;;;;;;14.49;100.00;101182.06;6032287;28;20034;-62
2022/09/11 07:53:33;;;;;;;29.97;14.70;;;;;;;14.59;100.00;101177.47;6044730;28;20037;-62
2022/09/11 07:56:29;;;;;;;32.78;15.27;;;;;;;14.53;100.00;101170.09;6033724;28;20030;-62
2022/09/11 07:59:25;;;;;;;30.52;13.70;;;;;;;14.73;100.00;101182.22;6046303;28;20044;-62
2022/09/11 08:02:21;;;;;;;33.27;14.10;;;;;;;14.83;100.00;101172.22;6043612;28;20038;-63
2022/09/11 08:05:17;;;;;;;33.47;14.85;;;;;;;15.00;100.00;101195.28;6046127;28;20092;-63
2022/09/11 08:08:12;;;;;;;31.42;13.57;;;;;;;15.09;100.00;101186.31;6046105;28;20054;-63
2022/09/11 08:11:09;;;;;;;29.03;13.73;;;;;;;15.22;100.00;101197.34;6044863;28;20030;-64
2022/09/11 08:14:06;;;;;;;31.05;13.77;;;;;;;15.18;100.00;101189.84;6045122;28;20076;-63
2022/09/11 08:17:01;;;;;;;26.98;11.60;;;;;;;15.19;100.00;101192.31;6046167;28;20034;-63
2022/09/11 08:19:56;;;;;;;26.23;12.60;;;;;;;15.41;100.00;101202.38;6046043;28;20606;-65
2022/09/11 08:22:52;;;;;;;24.37;11.47;;;;;;;15.43;100.00;101195.06;6045601;28;20268;-64
2022/09/11 08:25:49;;;;;;;23.67;11.60;;;;;;;15.36;100.00;101202.06;6046324;28;20477;-63
2022/09/11 08:28:45;;;;;;;27.65;12.45;;;;;;;15.62;99.83;101215.31;6033237;28;20030;-64
2022/09/11 08:31:40;;;;;;;26.70;12.30;;;;;;;15.55;99.64;101225.00;6045344;28;20034;-64
2022/09/11 08:34:37;;;;;;;27.85;12.80;;;;;;;15.74;99.84;101210.47;6045606;28;20025;-65
2022/09/11 08:37:32;;;;;;;26.83;12.63;;;;;;;15.63;99.02;101211.63;6045961;28;20068;-64
2022/09/11 08:40:29;;;;;;;25.77;12.13;;;;;;;15.65;98.50;101206.13;6045338;28;20029;-63
2022/09/11 08:43:32;;;;;;;31.17;13.18;;;;;;;15.65;97.98;101227.53;6042379;28;20144;-65
2022/09/11 08:46:35;;;;;;;26.38;12.55;;;;;;;15.70;99.01;101241.22;6045403;28;20113;-64
2022/09/11 08:49:43;;;;;;;27.08;13.05;;;;;;;15.60;98.62;101249.38;6046861;28;20157;-64
2022/09/11 08:52:38;;;;;;;25.00;12.07;;;;;;;15.71;100.00;101241.03;6060358;28;20046;-63
2022/09/11 08:55:59;;;;;;;26.70;11.93;;;;;;;15.98;98.80;101238.03;6049841;28;20735;-64
2022/09/11 08:59:19;;;;;;;23.30;11.10;;;;;;;16.01;95.77;101234.19;6065318;28;20297;-66
2022/09/11 09:02:52;;;;;;;23.88;11.63;;;;;;;16.39;95.84;101260.25;6047173;28;20049;-64
2022/09/11 09:06:25;;;;;;;27.73;12.23;;;;;;;16.27;93.85;101253.59;6048550;28;20473;-65
2022/09/11 09:09:35;;;;;;;23.13;10.82;;;;;;;16.45;93.32;101264.91;6049737;28;20037;-65
2022/09/11 09:12:43;;;;;;;20.70;11.13;;;;;;;16.40;93.20;101261.06;6047116;28;20044;-64
2022/09/11 09:15:52;;;;;;;28.80;11.65;;;;;;;16.45;92.99;101245.34;6048295;28;20465;-65
2022/09/11 09:18:52;;;;;;;25.98;11.18;;;;;;;16.89;91.74;101259.97;6042091;28;20038;-65
2022/09/11 09:22:04;;;;;;;23.83;12.27;;;;;;;17.13;91.07;101262.53;6044049;28;20136;-65
2022/09/11 09:25:04;;;;;;;22.20;10.98;;;;;;;17.22;87.67;101260.66;6052681;28;20030;-65
2022/09/11 09:28:10;;;;;;;25.08;11.23;;;;;;;17.15;87.43;101254.31;6064446;28;20065;-65
2022/09/11 09:31:07;;;;;;;24.83;11.40;;;;;;;17.55;85.38;101254.13;6047498;28;20030;-65
2022/09/11 09:34:14;;;;;;;20.67;11.15;;;;;;;17.93;84.49;101244.28;6045309;28;20038;-64
2022/09/11 09:37:19;;;;;;;22.05;10.38;;;;;;;17.93;82.63;101254.16;6046902;28;20038;-64
2022/09/11 09:40:17;;;;;;;19.67;9.55;;;;;;;18.18;83.30;101252.94;6047537;28;20037;-64
2022/09/11 09:43:43;;;;;;;22.80;9.63;;;;;;;18.85;81.50;101251.91;6037939;28;20045;-64
2022/09/11 09:46:47;;;;;;;18.02;9.55;;;;;;;19.22;76.47;101268.91;6040468;28;20137;-63
2022/09/11 09:49:43;;;;;;;18.33;9.25;;;;;;;18.95;76.83;101249.75;6045818;28;20034;-64
2022/09/11 09:52:38;;;;;;;19.08;9.63;;;;;;;18.98;76.59;101262.84;6037371;28;20045;-63
2022/09/11 09:55:33;;;;;;;20.00;8.85;;;;;;;19.21;76.25;101267.25;6045717;28;20042;-63
2022/09/11 09:58:35;;;;;;;18.38;8.63;;;;;;;18.77;74.37;101265.44;6046418;28;20060;-64
2022/09/11 10:01:43;;;;;;;15.90;8.43;;;;;;;19.29;75.56;101275.22;6063553;28;20550;-64
2022/09/11 10:04:39;;;;;;;18.15;9.32;;;;;;;19.24;74.85;101274.94;6036870;28;20061;-64
2022/09/11 10:07:34;;;;;;;12.82;7.10;;;;;;;18.78;75.98;101269.78;6047219;28;20034;-65
2022/09/11 10:10:39;;;;;;;14.85;7.70;;;;;;;18.73;74.22;101272.19;6039449;28;20066;-65
2022/09/11 10:13:41;;;;;;;13.43;7.60;;;;;;;18.88;76.48;101278.41;6043473;28;20037;-65
2022/09/11 10:16:36;;;;;;;14.10;7.68;;;;;;;18.90;74.13;101280.91;6046700;28;20034;-65
2022/09/11 10:19:36;;;;;;;15.50;7.43;;;;;;;19.05;74.01;101278.22;6048547;28;20030;-65
2022/09/11 10:22:31;;;;;;;15.27;8.65;;;;;;;18.87;75.50;101279.44;6047789;28;20112;-64
2022/09/11 10:25:28;;;;;;;14.20;7.95;;;;;;;19.27;74.12;101275.38;6046596;28;20492;-63
2022/09/11 10:28:30;;;;;;;18.58;7.30;;;;;;;19.15;72.95;101258.09;6036981;28;20593;-65
2022/09/11 10:31:25;;;;;;;12.27;7.00;;;;;;;19.08;73.54;101272.47;6027823;28;20034;-65
2022/09/11 10:34:22;;;;;;;16.73;7.93;;;;;;;18.50;75.59;101276.84;6039977;28;20108;-64
2022/09/11 10:37:28;;;;;;;15.68;7.93;;;;;;;18.81;74.89;101285.53;6043855;28;20061;-64
2022/09/11 10:40:24;;;;;;;13.23;7.20;;;;;;;18.21;77.33;101265.97;6042813;28;20441;-64
2022/09/11 10:43:23;;;;;;;14.10;7.40;;;;;;;18.41;77.47;101278.72;6046365;28;20033;-64
2022/09/11 10:46:23;;;;;;;13.85;7.45;;;;;;;18.50;76.23;101282.19;6039205;28;20828;-64
2022/09/11 10:49:22;;;;;;;13.98;7.07;;;;;;;18.35;77.21;101276.75;6042164;28;20034;-63
2022/09/11 10:52:18;;;;;;;16.10;7.55;;;;;;;18.56;75.71;101278.78;6046803;28;20535;-65
2022/09/11 10:55:14;;;;;;;14.88;7.68;;;;;;;18.44;77.33;101294.47;6044965;28;20040;-64
2022/09/11 10:58:16;;;;;;;16.65;7.50;;;;;;;18.43;78.43;101286.59;6038911;28;20034;-65
2022/09/11 11:01:11;;;;;;;15.93;7.88;;;;;;;18.50;78.25;101284.88;6041667;28;20199;-64
2022/09/11 11:04:10;;;;;;;16.38;7.75;;;;;;;18.54;76.92;101298.75;6039219;28;20038;-65
2022/09/11 11:07:44;;;;;;;16.08;7.50;;;;;;;18.50;77.68;101295.63;6031827;28;20034;-64
2022/09/11 11:11:02;;;;;;;15.20;7.85;;;;;;;18.20;79.28;101291.19;6045225;28;20033;-65
2022/09/11 11:14:08;;;;;;;17.05;9.52;;;;;;;18.17;79.55;101307.66;6060706;28;20420;-64
2022/09/11 11:17:34;;;;;;;17.17;8.60;;;;;;;17.88;81.32;101308.41;6058233;28;20056;-64
2022/09/11 11:20:51;;;;;;;12.75;7.10;;;;;;;17.75;80.88;101298.22;6039664;28;20034;-64
2022/09/11 11:24:36;;;;;;;16.13;6.78;;;;;;;17.99;80.70;101299.91;6038910;28;20032;-64
2022/09/11 11:28:10;;;;;;;14.23;7.18;;;;;;;18.23;80.78;101306.94;6039142;28;20053;-63
2022/09/11 11:31:36;;;;;;;15.00;6.57;;;;;;;18.76;77.00;101298.72;6017448;28;20168;-65
2022/09/11 11:34:50;;;;;;;13.75;6.35;;;;;;;18.89;74.84;101285.44;6019633;28;20490;-65
2022/09/11 11:37:47;;;;;;;9.25;5.20;;;;;;;19.15;73.53;101294.88;6039870;28;20040;-65
2022/09/11 11:40:52;;;;;;;10.35;5.60;;;;;;;19.27;73.96;101293.41;6045761;28;20462;-64
2022/09/11 11:43:51;;;;;;;9.90;5.22;;;;;;;19.46;72.62;101282.03;6036157;28;20048;-65
2022/09/11 11:46:51;;;;;;;8.75;4.90;;;;;;;19.50;71.64;101283.34;6046289;28;20088;-64
2022/09/11 11:50:05;;;;;;;11.40;5.53;;;;;;;19.79;71.39;101283.25;6044845;28;20380;-64
2022/09/11 11:53:21;;;;;;;10.48;5.35;;;;;;;20.09;69.11;101275.84;6045075;28;20072;-64
2022/09/11 11:56:27;;;;;;;8.90;4.72;;;;;;;20.44;69.95;101285.69;6045082;28;20049;-65
2022/09/11 11:59:35;;;;;;;9.15;5.00;;;;;;;21.24;66.18;101280.59;6045004;28;20038;-64
2022/09/11 12:02:48;;;;;;;10.15;5.13;;;;;;;21.21;65.86;101286.41;6044630;28;20038;-64
2022/09/11 12:05:43;;;;;;;9.07;4.43;;;;;;;20.70;66.62;101283.19;6037602;28;20034;-65
2022/09/11 12:08:45;;;;;;;10.60;5.13;;;;;;;20.44;67.83;101291.09;6046083;28;20042;-65
2022/09/11 12:11:42;;;;;;;9.80;4.25;;;;;;;20.43;67.61;101277.81;6045673;28;20038;-65
2022/09/11 12:14:47;;;;;;;7.28;4.32;;;;;;;20.64;67.50;101293.94;6046104;28;20385;-65
2022/09/11 12:17:42;;;;;;;9.45;4.72;;;;;;;20.57;66.60;101280.41;6044940;28;20461;-65
2022/09/11 12:20:43;;;;;;;7.67;4.40;;;;;;;20.51;67.21;101289.28;6045832;28;20033;-65
2022/09/11 12:23:46;;;;;;;7.80;4.35;;;;;;;20.50;66.87;101284.09;6048971;28;20057;-65
2022/09/11 12:26:41;;;;;;;9.90;4.63;;;;;;;19.95;68.12;101282.97;6031915;28;20038;-63
2022/09/11 12:29:54;;;;;;;10.17;4.63;;;;;;;19.79;68.69;101283.25;6027104;28;20035;-65
2022/09/11 12:32:51;;;;;;;8.32;4.60;;;;;;;19.98;69.78;101282.59;6026702;28;20066;-65
2022/09/11 12:35:48;;;;;;;7.43;4.07;;;;;;;20.38;67.59;101283.81;6045507;28;20049;-64
2022/09/11 12:38:53;;;;;;;8.52;3.90;;;;;;;20.72;67.24;101274.91;6040922;28;20041;-65
2022/09/11 12:41:48;;;;;;;8.50;4.63;;;;;;;21.16;64.48;101271.84;6049752;28;20036;-64
2022/09/11 12:44:46;;;;;;;8.70;4.20;;;;;;;21.40;63.39;101284.81;6050559;28;20413;-65
2022/09/11 12:47:42;;;;;;;7.80;3.97;;;;;;;21.67;62.75;101264.94;6050624;28;20034;-64
2022/09/11 12:50:37;;;;;;;8.20;4.10;;;;;;;21.92;61.70;101273.31;6049703;28;20065;-65
2022/09/11 12:53:35;;;;;;;6.95;4.07;;;;;;;21.20;61.70;101279.31;6048773;28;20265;-64
2022/09/11 12:56:33;;;;;;;9.82;4.97;;;;;;;20.76;65.30;101278.88;6044739;28;20091;-65
2022/09/11 12:59:40;;;;;;;9.13;4.80;;;;;;;20.93;63.83;101276.66;6064931;28;20199;-66
2022/09/11 13:02:41;;;;;;;11.45;4.78;;;;;;;21.07;63.48;101265.78;6064836;28;20029;-64
2022/09/11 13:05:37;;;;;;;13.63;4.90;;;;;;;21.33;63.07;101271.28;6048691;28;20033;-64
2022/09/11 13:08:37;;;;;;;11.48;5.47;;;;;;;21.04;63.68;101263.44;6048808;28;20030;-64
2022/09/11 13:11:40;;;;;;;14.35;6.18;;;;;;;20.73;64.98;101260.41;6047282;28;20038;-65
2022/09/11 13:14:36;;;;;;;10.57;5.13;;;;;;;20.74;65.45;101262.03;6049963;28;20765;-65
2022/09/11 13:17:33;;;;;;;10.70;6.00;;;;;;;20.55;65.55;101257.38;6049913;28;20045;-63
2022/09/11 13:20:29;;;;;;;10.90;6.00;;;;;;;20.74;64.86;101267.44;6047432;28;20042;-65
2022/09/11 13:23:25;;;;;;;10.95;5.13;;;;;;;20.60;66.11;101249.56;6049637;28;20560;-65
2022/09/11 13:26:26;;;;;;;10.25;4.63;;;;;;;20.47;66.71;101254.81;6049318;28;20448;-65
2022/09/11 13:29:23;;;;;;;10.48;5.40;;;;;;;20.29;67.76;101252.66;6048058;28;20654;-64
2022/09/11 13:32:19;;;;;;;10.15;5.53;;;;;;;20.10;68.22;101264.91;6048912;28;20041;-65
2022/09/11 13:35:23;;;;;;;10.38;5.80;;;;;;;20.11;68.03;101245.00;6049197;28;20087;-64
2022/09/11 13:38:24;;;;;;;8.68;4.63;;;;;;;20.30;68.22;101253.47;6049362;28;20026;-65